Time;durP1;ratioP1;P1;durP2;ratioP2;P2;SDS_P1;SDS_P2;PMS_P1;PMS_P2;Temp;Humidity;BMP_temperature;BMP_pressure;BME280_temperature;BME280_humidity;BME280_pressure;Samples;Min_cycle;Max_cycle;Signal;HPM_P1;HPM_P2
2023/01/23 00:01:42;;;;;;;9.98;6.07;;;3.60;99.90;;;;;;5075526;28;20133;-85
2023/01/23 00:04:11;;;;;;;7.18;5.82;;;3.60;99.90;;;;;;5075715;28;20036;-85
2023/01/23 00:06:36;;;;;;;7.55;6.03;;;3.60;99.90;;;;;;5075919;28;20043;-85
2023/01/23 00:09:02;;;;;;;8.63;4.97;;;3.60;99.90;;;;;;5075464;28;20049;-84
2023/01/23 00:11:29;;;;;;;8.88;5.72;;;3.60;99.90;;;;;;5075252;28;20131;-85
2023/01/23 00:13:56;;;;;;;8.88;5.63;;;3.60;99.90;;;;;;5075136;28;20119;-85
2023/01/23 00:16:23;;;;;;;6.57;5.85;;;3.60;99.90;;;;;;5076385;28;20095;-85
2023/01/23 00:18:50;;;;;;;6.22;5.38;;;3.60;99.90;;;;;;5057772;28;20503;-85
2023/01/23 00:21:22;;;;;;;9.10;5.93;;;3.60;99.90;;;;;;5075073;28;20040;-85
2023/01/23 00:23:51;;;;;;;11.13;5.50;;;3.60;99.90;;;;;;5057292;28;20487;-85
2023/01/23 00:26:19;;;;;;;10.25;5.85;;;3.60;99.90;;;;;;5074866;28;20347;-85
2023/01/23 00:28:46;;;;;;;7.95;6.40;;;3.80;99.90;;;;;;5075275;28;20076;-85
2023/01/23 00:31:16;;;;;;;6.78;4.88;;;3.60;99.90;;;;;;5074864;28;20044;-85
2023/01/23 00:33:43;;;;;;;8.80;5.18;;;3.60;99.90;;;;;;5074706;28;20051;-85
2023/01/23 00:36:09;;;;;;;10.00;5.60;;;3.80;99.90;;;;;;5074712;28;20052;-85
2023/01/23 00:38:35;;;;;;;6.32;5.00;;;3.60;99.90;;;;;;5074460;28;20174;-85
2023/01/23 00:41:02;;;;;;;8.20;5.43;;;3.70;99.90;;;;;;5074505;28;20079;-85
2023/01/23 00:43:28;;;;;;;9.27;5.57;;;3.60;99.90;;;;;;5074438;28;20043;-85
2023/01/23 00:45:54;;;;;;;7.93;5.13;;;3.60;99.90;;;;;;5074682;28;20472;-85
2023/01/23 00:48:20;;;;;;;7.75;5.28;;;3.60;99.90;;;;;;5074994;28;20044;-85
2023/01/23 00:50:46;;;;;;;11.32;6.32;;;3.60;99.90;;;;;;5074412;28;20043;-84
2023/01/23 00:53:12;;;;;;;8.82;5.80;;;3.60;99.90;;;;;;5074039;28;20044;-85
2023/01/23 00:55:38;;;;;;;5.95;4.78;;;3.60;99.90;;;;;;5074369;28;20083;-84
2023/01/23 00:58:04;;;;;;;7.78;5.85;;;3.60;99.90;;;;;;5074860;28;20071;-85
2023/01/23 01:00:30;;;;;;;9.52;5.93;;;3.60;99.90;;;;;;5074851;28;20037;-85
2023/01/23 01:02:56;;;;;;;8.82;6.53;;;3.60;99.90;;;;;;5056577;28;20032;-85
2023/01/23 01:05:22;;;;;;;7.20;5.22;;;3.60;99.90;;;;;;5074446;28;20040;-85
2023/01/23 01:07:48;;;;;;;9.02;6.03;;;3.60;99.90;;;;;;5074351;28;20102;-85
2023/01/23 01:10:14;;;;;;;10.25;5.70;;;3.60;99.90;;;;;;5074312;28;20048;-85
2023/01/23 01:12:40;;;;;;;8.20;5.20;;;3.60;99.90;;;;;;5074197;28;20036;-85
2023/01/23 01:15:07;;;;;;;8.10;6.63;;;3.80;99.90;;;;;;5073208;28;20414;-84
2023/01/23 01:17:34;;;;;;;6.70;5.18;;;3.60;99.90;;;;;;5073927;28;20045;-84
2023/01/23 01:20:00;;;;;;;8.05;5.95;;;3.60;99.90;;;;;;5073553;28;20501;-84
2023/01/23 01:22:26;;;;;;;13.25;6.03;;;3.70;99.90;;;;;;5073804;28;20123;-84
2023/01/23 01:24:52;;;;;;;7.88;5.30;;;3.70;99.90;;;;;;5074090;28;20131;-84
2023/01/23 01:27:17;;;;;;;10.30;5.97;;;3.70;99.90;;;;;;5073984;28;20044;-84
2023/01/23 01:29:43;;;;;;;8.45;5.70;;;3.70;99.90;;;;;;5073802;28;20495;-84
2023/01/23 01:32:09;;;;;;;7.35;5.38;;;3.70;99.90;;;;;;5073545;28;20115;-84
2023/01/23 01:34:34;;;;;;;8.50;5.00;;;3.70;99.90;;;;;;5057095;28;20123;-85
2023/01/23 01:37:00;;;;;;;7.25;4.78;;;3.70;99.90;;;;;;5073940;28;20123;-84
2023/01/23 01:39:26;;;;;;;9.82;6.07;;;3.90;99.90;;;;;;5073813;28;20037;-84
2023/01/23 01:41:52;;;;;;;9.50;5.78;;;3.70;99.90;;;;;;5055885;28;20040;-84
2023/01/23 01:44:20;;;;;;;9.32;5.70;;;3.90;99.90;;;;;;5073690;28;20045;-84
2023/01/23 01:46:46;;;;;;;7.38;4.95;;;3.70;99.90;;;;;;5073913;28;20072;-84
2023/01/23 01:49:20;;;;;;;7.43;5.22;;;3.70;99.90;;;;;;5059913;28;20507;-84
2023/01/23 01:52:12;;;;;;;6.88;6.15;;;3.70;99.90;;;;;;5063514;28;20052;-85
2023/01/23 01:54:55;;;;;;;11.30;5.70;;;3.90;99.90;;;;;;5079577;28;20084;-85
2023/01/23 01:57:25;;;;;;;8.77;6.30;;;3.70;99.90;;;;;;5080293;28;20040;-84
2023/01/23 01:59:57;;;;;;;8.13;7.05;;;3.70;99.90;;;;;;5080867;28;20048;-84
2023/01/23 02:02:31;;;;;;;7.95;5.70;;;3.80;99.90;;;;;;5080944;28;20127;-84
2023/01/23 02:05:01;;;;;;;10.45;6.72;;;3.70;99.90;;;;;;5080078;28;20075;-84
2023/01/23 02:07:34;;;;;;;8.85;6.10;;;3.70;99.90;;;;;;5079757;28;20497;-84
2023/01/23 02:10:02;;;;;;;8.73;5.60;;;3.70;99.90;;;;;;5079879;28;20465;-84
2023/01/23 02:12:28;;;;;;;7.03;4.88;;;3.70;99.90;;;;;;5080244;28;20465;-84
2023/01/23 02:14:54;;;;;;;6.90;5.50;;;3.70;99.90;;;;;;5080000;28;20044;-84
2023/01/23 02:17:20;;;;;;;8.88;6.55;;;3.70;99.90;;;;;;5079959;28;20087;-84
2023/01/23 02:19:58;;;;;;;7.20;5.10;;;3.80;99.90;;;;;;5080466;28;20041;-84
2023/01/23 02:22:31;;;;;;;7.55;4.90;;;3.80;99.90;;;;;;5080602;28;20037;-84
2023/01/23 02:25:22;;;;;;;9.30;6.30;;;3.80;99.90;;;;;;5062063;28;20488;-84
2023/01/23 02:27:48;;;;;;;6.53;5.78;;;3.80;99.90;;;;;;5065455;28;20052;-84
2023/01/23 02:30:14;;;;;;;7.13;5.35;;;3.80;99.90;;;;;;5079813;28;20101;-84
2023/01/23 02:32:40;;;;;;;9.23;6.18;;;3.80;99.90;;;;;;5079906;28;20044;-84
2023/01/23 02:35:15;;;;;;;11.05;6.25;;;3.90;99.90;;;;;;5080313;28;20480;-83
2023/01/23 02:37:45;;;;;;;7.57;6.15;;;3.90;99.90;;;;;;5061849;28;20044;-84
2023/01/23 02:40:11;;;;;;;11.00;6.72;;;4.10;99.90;;;;;;5062215;28;20477;-84
2023/01/23 02:42:41;;;;;;;10.60;6.45;;;3.90;99.90;;;;;;5080005;28;20052;-84
2023/01/23 02:45:07;;;;;;;8.75;5.90;;;4.10;99.90;;;;;;5080553;28;20052;-84
2023/01/23 02:47:33;;;;;;;7.93;6.40;;;3.90;99.90;;;;;;5061887;28;20051;-84
2023/01/23 02:50:00;;;;;;;8.60;6.18;;;4.10;99.90;;;;;;5080417;28;20082;-84
2023/01/23 02:52:26;;;;;;;8.15;6.28;;;3.90;99.90;;;;;;5080270;28;20048;-83
2023/01/23 02:54:52;;;;;;;10.38;7.18;;;3.90;99.90;;;;;;5079815;28;20048;-84
2023/01/23 02:57:17;;;;;;;8.90;6.28;;;4.00;99.90;;;;;;5061807;28;20135;-84
2023/01/23 03:02:27;;;;;;;9.65;6.43;;;3.80;99.90;;;;;;5077025;28;20098;-84
2023/01/23 03:04:53;;;;;;;9.63;6.78;;;3.80;99.90;;;;;;5058577;28;20052;-84
2023/01/23 03:07:19;;;;;;;8.60;6.55;;;3.80;99.90;;;;;;5077154;28;20044;-84
2023/01/23 03:09:47;;;;;;;7.60;6.18;;;4.00;99.90;;;;;;5076606;28;20036;-84
2023/01/23 03:12:14;;;;;;;9.90;6.80;;;3.90;99.90;;;;;;5076880;28;20041;-84
2023/01/23 03:14:40;;;;;;;8.27;6.28;;;3.90;99.90;;;;;;5076341;28;20048;-85
2023/01/23 03:17:06;;;;;;;9.02;7.00;;;3.90;99.90;;;;;;5076198;28;20044;-84
2023/01/23 03:19:31;;;;;;;8.02;6.35;;;3.90;99.90;;;;;;5076283;28;20056;-84
2023/01/23 03:21:57;;;;;;;8.02;6.38;;;3.80;99.90;;;;;;5076028;28;20044;-84
2023/01/23 03:24:23;;;;;;;10.93;6.68;;;3.90;99.90;;;;;;5076055;28;20041;-84
2023/01/23 03:26:49;;;;;;;10.23;7.05;;;3.90;99.90;;;;;;5076899;28;20178;-84
2023/01/23 03:32:09;;;;;;;8.93;6.72;;;3.90;99.90;;;;;;5075977;28;20051;-84
2023/01/23 03:34:35;;;;;;;12.52;7.53;;;3.80;99.90;;;;;;5075929;28;20044;-84
2023/01/23 03:37:02;;;;;;;9.95;6.80;;;3.80;99.90;;;;;;5075890;28;20044;-84
2023/01/23 03:42:12;;;;;;;13.68;8.35;;;3.80;99.90;;;;;;5075723;28;20040;-84
2023/01/23 03:44:39;;;;;;;17.25;8.73;;;3.70;99.90;;;;;;5075721;28;20043;-84
2023/01/23 03:47:05;;;;;;;7.65;6.95;;;3.70;99.90;;;;;;5075671;28;20044;-85
2023/01/23 03:49:31;;;;;;;10.80;7.63;;;3.70;99.90;;;;;;5076153;28;20119;-85
2023/01/23 03:51:57;;;;;;;9.55;6.28;;;3.70;99.90;;;;;;5076505;28;20077;-84
2023/01/23 03:54:23;;;;;;;12.02;7.63;;;3.60;99.90;;;;;;5075414;28;20056;-84
2023/01/23 03:56:49;;;;;;;11.32;8.43;;;3.70;99.90;;;;;;5075589;28;20047;-85
2023/01/23 03:59:14;;;;;;;7.97;6.93;;;3.70;99.90;;;;;;5075427;28;20045;-85
2023/01/23 04:01:40;;;;;;;10.57;7.32;;;3.70;99.90;;;;;;5058428;28;20039;-84
2023/01/23 04:04:06;;;;;;;9.98;7.38;;;3.60;99.90;;;;;;5057977;28;20044;-85
2023/01/23 04:06:32;;;;;;;9.02;7.13;;;3.60;99.90;;;;;;5076000;28;20044;-85
2023/01/23 04:08:57;;;;;;;9.32;7.80;;;3.60;99.90;;;;;;5075130;28;20465;-84
2023/01/23 04:11:25;;;;;;;11.77;7.38;;;3.70;99.90;;;;;;5075360;28;20182;-84
2023/01/23 04:13:51;;;;;;;13.68;7.20;;;3.70;99.90;;;;;;5075049;28;20045;-85
2023/01/23 04:16:17;;;;;;;10.50;7.78;;;3.90;99.90;;;;;;5074934;28;20041;-85
2023/01/23 04:18:42;;;;;;;10.90;6.63;;;3.60;99.90;;;;;;5075553;28;20094;-85
2023/01/23 04:21:08;;;;;;;9.05;6.43;;;3.60;99.90;;;;;;5075194;28;20040;-85
2023/01/23 04:23:34;;;;;;;10.75;7.80;;;3.60;99.90;;;;;;5075063;28;20040;-84
2023/01/23 04:26:00;;;;;;;9.07;7.63;;;3.70;99.90;;;;;;5074864;28;20041;-84
2023/01/23 04:28:26;;;;;;;9.38;7.28;;;3.70;99.90;;;;;;5075513;28;20135;-85
2023/01/23 04:30:52;;;;;;;11.60;8.00;;;3.60;99.90;;;;;;5074983;28;20469;-84
2023/01/23 04:33:18;;;;;;;14.13;7.50;;;3.60;99.90;;;;;;5081087;28;20036;-84
2023/01/23 04:35:58;;;;;;;12.27;7.63;;;3.60;99.90;;;;;;5093365;28;20036;-85
2023/01/23 04:38:24;;;;;;;7.90;7.13;;;3.60;99.90;;;;;;5094837;28;20110;-84
2023/01/23 04:40:51;;;;;;;11.70;7.78;;;3.70;99.90;;;;;;5093866;28;20090;-84
2023/01/23 04:43:17;;;;;;;8.88;7.45;;;3.90;99.90;;;;;;5095070;28;20092;-84
2023/01/23 04:45:43;;;;;;;7.75;6.80;;;4.20;99.90;;;;;;5081109;28;20044;-84
2023/01/23 04:48:10;;;;;;;11.15;6.63;;;3.80;99.90;;;;;;5099214;28;20051;-84
2023/01/23 04:50:36;;;;;;;12.18;6.93;;;3.90;99.90;;;;;;5097297;28;20044;-84
2023/01/23 04:53:03;;;;;;;10.38;7.45;;;3.90;99.90;;;;;;5085036;28;20087;-85
2023/01/23 04:55:29;;;;;;;9.20;6.18;;;3.90;99.90;;;;;;5080169;28;20075;-85
2023/01/23 04:57:55;;;;;;;7.82;6.53;;;4.00;99.90;;;;;;5076966;28;20477;-85
2023/01/23 05:00:21;;;;;;;8.52;6.07;;;3.90;99.90;;;;;;5058846;28;20044;-85
2023/01/23 05:02:48;;;;;;;7.70;4.90;;;3.90;99.90;;;;;;5057177;28;20040;-85
2023/01/23 05:05:16;;;;;;;8.63;6.90;;;3.90;99.90;;;;;;5074252;28;20127;-85
2023/01/23 05:07:42;;;;;;;9.18;6.40;;;4.00;99.90;;;;;;5074023;28;20052;-85
2023/01/23 05:10:09;;;;;;;8.23;6.18;;;4.40;99.90;;;;;;5075173;28;20036;-85
2023/01/23 05:12:34;;;;;;;8.45;5.82;;;4.00;99.90;;;;;;5073956;28;20469;-85
2023/01/23 05:15:00;;;;;;;7.82;6.22;;;3.90;99.90;;;;;;5074048;28;20166;-85
2023/01/23 05:17:26;;;;;;;9.30;6.45;;;4.00;99.90;;;;;;5074428;28;20041;-85
2023/01/23 05:19:52;;;;;;;10.52;6.53;;;4.40;99.90;;;;;;5074479;28;20040;-85
2023/01/23 05:22:17;;;;;;;10.57;5.95;;;3.90;99.90;;;;;;5074277;28;20137;-85
2023/01/23 05:24:43;;;;;;;8.02;6.32;;;3.80;99.90;;;;;;5073393;28;20476;-85
2023/01/23 05:27:10;;;;;;;9.35;5.95;;;3.80;99.90;;;;;;5074634;28;20051;-85
2023/01/23 05:29:35;;;;;;;10.90;6.32;;;3.80;99.90;;;;;;5073814;28;20098;-85
2023/01/23 05:32:01;;;;;;;7.45;6.18;;;3.80;99.90;;;;;;5073797;28;20036;-85
2023/01/23 05:34:27;;;;;;;7.65;5.68;;;3.70;99.90;;;;;;5073939;28;20032;-85
2023/01/23 05:36:53;;;;;;;6.78;5.70;;;3.60;99.90;;;;;;5056001;28;20078;-85
2023/01/23 05:39:18;;;;;;;11.75;6.60;;;3.80;99.90;;;;;;5072683;28;20040;-85
2023/01/23 05:41:44;;;;;;;7.68;6.25;;;3.70;99.90;;;;;;5073799;28;20487;-85
2023/01/23 05:44:10;;;;;;;8.15;6.07;;;3.60;99.90;;;;;;5073709;28;20045;-85
2023/01/23 05:46:41;;;;;;;9.15;6.32;;;3.60;99.90;;;;;;5074450;28;20097;-87
2023/01/23 05:49:09;;;;;;;9.13;5.50;;;3.70;99.90;;;;;;5074011;28;20391;-84
2023/01/23 05:51:35;;;;;;;8.10;6.18;;;3.70;99.90;;;;;;5073701;28;20032;-84
2023/01/23 05:54:02;;;;;;;10.00;7.95;;;3.60;99.90;;;;;;5074177;28;20064;-83
2023/01/23 05:56:28;;;;;;;7.20;6.45;;;3.70;99.90;;;;;;5073923;28;20051;-84
2023/01/23 05:58:54;;;;;;;6.70;6.00;;;3.70;99.90;;;;;;5074247;28;20137;-84
2023/01/23 06:01:20;;;;;;;10.15;6.50;;;4.10;99.90;;;;;;5073552;28;20103;-83
2023/01/23 06:03:46;;;;;;;12.32;6.35;;;3.70;99.90;;;;;;5073403;28;20045;-83
2023/01/23 06:06:12;;;;;;;9.82;6.28;;;4.50;99.90;;;;;;5073554;28;20512;-84
2023/01/23 06:08:38;;;;;;;11.98;6.85;;;3.60;99.90;;;;;;5073188;28;20049;-85
2023/01/23 06:11:04;;;;;;;8.82;7.00;;;3.80;99.90;;;;;;5073548;28;20048;-85
2023/01/23 06:13:30;;;;;;;8.43;6.75;;;3.60;99.90;;;;;;5073489;28;20120;-85
2023/01/23 06:15:56;;;;;;;10.15;6.28;;;3.70;99.90;;;;;;5074071;28;20127;-87
2023/01/23 06:18:22;;;;;;;8.30;6.10;;;3.50;99.90;;;;;;5073402;28;20131;-83
2023/01/23 06:20:48;;;;;;;7.18;6.03;;;3.70;99.90;;;;;;5073890;28;20036;-84
2023/01/23 06:23:14;;;;;;;7.93;6.50;;;3.60;99.90;;;;;;5073304;28;20048;-84
2023/01/23 06:25:40;;;;;;;7.07;6.00;;;3.60;99.90;;;;;;5073288;28;20076;-84
2023/01/23 06:28:06;;;;;;;8.38;6.45;;;3.60;99.90;;;;;;5073248;28;20040;-82
2023/01/23 06:30:32;;;;;;;12.63;6.70;;;3.70;99.90;;;;;;5072362;28;20052;-84
2023/01/23 06:32:58;;;;;;;10.65;5.97;;;3.80;99.90;;;;;;5073694;28;20101;-85
2023/01/23 06:35:24;;;;;;;9.18;5.78;;;3.80;99.90;;;;;;5075672;28;20047;-85
2023/01/23 06:37:49;;;;;;;6.78;5.75;;;3.80;99.90;;;;;;5076908;28;20126;-84
2023/01/23 06:40:16;;;;;;;7.25;5.80;;;3.80;99.90;;;;;;5077716;28;20040;-84
2023/01/23 06:42:42;;;;;;;10.85;6.30;;;3.80;99.90;;;;;;5058805;28;20040;-84
2023/01/23 06:45:09;;;;;;;7.70;6.47;;;3.80;99.90;;;;;;5076833;28;20036;-83
2023/01/23 06:47:35;;;;;;;8.52;5.65;;;3.70;99.90;;;;;;5077213;28;20040;-84
2023/01/23 06:50:01;;;;;;;10.80;6.72;;;3.60;99.90;;;;;;5077090;28;20126;-85
2023/01/23 06:52:28;;;;;;;8.48;6.70;;;3.60;99.90;;;;;;5076276;28;20063;-84
2023/01/23 06:54:54;;;;;;;7.38;5.82;;;3.70;99.90;;;;;;5075068;28;20122;-83
2023/01/23 06:57:19;;;;;;;10.18;6.63;;;3.60;99.90;;;;;;5076481;28;20041;-82
2023/01/23 06:59:45;;;;;;;9.80;6.65;;;3.70;99.90;;;;;;5077056;28;20123;-82
2023/01/23 07:02:11;;;;;;;9.52;6.80;;;3.60;99.90;;;;;;5075633;28;20032;-80
2023/01/23 07:04:37;;;;;;;6.25;5.65;;;3.60;99.90;;;;;;5076248;28;20129;-82
2023/01/23 07:07:04;;;;;;;8.23;6.60;;;3.60;99.90;;;;;;5076414;28;20047;-83
2023/01/23 07:09:29;;;;;;;9.63;6.38;;;3.70;99.90;;;;;;5076257;28;20067;-83
2023/01/23 07:11:55;;;;;;;7.38;5.65;;;3.70;99.90;;;;;;5076129;28;20041;-81
2023/01/23 07:14:21;;;;;;;7.97;5.97;;;3.70;99.90;;;;;;5075615;28;20036;-81
2023/01/23 07:16:46;;;;;;;8.48;6.50;;;3.70;99.90;;;;;;5076054;28;20477;-84
2023/01/23 07:19:12;;;;;;;7.32;6.32;;;3.80;99.90;;;;;;5074889;28;20043;-81
2023/01/23 07:21:38;;;;;;;10.82;6.55;;;3.70;99.90;;;;;;5075387;28;20098;-83
2023/01/23 07:24:04;;;;;;;8.82;6.47;;;3.70;99.90;;;;;;5041493;28;20491;-83
2023/01/23 07:26:30;;;;;;;10.00;7.07;;;3.70;99.90;;;;;;5076476;28;20044;-83
2023/01/23 07:28:55;;;;;;;12.57;7.22;;;3.70;99.90;;;;;;5076233;28;20036;-84
2023/01/23 07:31:21;;;;;;;7.25;5.07;;;3.60;99.90;;;;;;5075503;28;20477;-83
2023/01/23 07:33:47;;;;;;;7.35;5.68;;;3.60;99.90;;;;;;5074690;28;20044;-85
2023/01/23 07:36:13;;;;;;;7.13;5.70;;;3.60;99.90;;;;;;5075998;28;20055;-84
2023/01/23 07:38:40;;;;;;;12.43;6.40;;;3.60;99.90;;;;;;5074936;28;20445;-84
2023/01/23 07:41:05;;;;;;;10.70;6.97;;;3.60;99.90;;;;;;5074627;28;20052;-81
2023/01/23 07:43:31;;;;;;;13.20;6.88;;;3.60;99.90;;;;;;5073944;28;20033;-81
2023/01/23 07:45:58;;;;;;;10.52;5.97;;;3.60;99.90;;;;;;5073997;28;20041;-82
2023/01/23 07:48:24;;;;;;;8.60;6.80;;;3.60;99.90;;;;;;5074822;28;20040;-84
2023/01/23 07:50:49;;;;;;;9.63;6.22;;;3.80;99.90;;;;;;5075027;28;20542;-84
2023/01/23 07:53:15;;;;;;;8.82;6.32;;;3.60;99.90;;;;;;5074767;28;20128;-87
2023/01/23 07:55:41;;;;;;;7.97;6.53;;;3.70;99.90;;;;;;5058076;28;20048;-81
2023/01/23 07:58:07;;;;;;;8.20;5.40;;;3.80;99.90;;;;;;5074652;28;20381;-80
2023/01/23 08:00:35;;;;;;;9.57;6.20;;;3.70;99.90;;;;;;5075272;28;20047;-84
2023/01/23 08:03:01;;;;;;;7.32;5.78;;;3.80;99.90;;;;;;5057398;28;20370;-82
2023/01/23 08:05:27;;;;;;;6.45;5.25;;;3.70;99.90;;;;;;5074749;28;20036;-85
2023/01/23 08:07:52;;;;;;;7.18;6.30;;;3.70;99.90;;;;;;5074479;28;20047;-84
2023/01/23 08:10:18;;;;;;;8.35;5.55;;;3.70;99.90;;;;;;5074916;28;20127;-82
2023/01/23 08:12:44;;;;;;;8.80;5.53;;;3.80;99.90;;;;;;5075401;28;20044;-81
2023/01/23 08:15:10;;;;;;;6.95;5.15;;;3.70;99.90;;;;;;5074167;28;20039;-83
2023/01/23 08:17:36;;;;;;;7.35;5.43;;;3.80;99.90;;;;;;5074605;28;20123;-80
2023/01/23 08:20:02;;;;;;;7.50;5.82;;;3.80;99.90;;;;;;5074281;28;20087;-85
2023/01/23 08:22:28;;;;;;;10.68;6.03;;;3.80;99.90;;;;;;5074104;28;20527;-80
2023/01/23 08:24:54;;;;;;;10.85;5.72;;;4.10;99.90;;;;;;5074283;28;20040;-83
2023/01/23 08:27:19;;;;;;;8.18;5.95;;;3.90;99.90;;;;;;5056475;28;20040;-69
2023/01/23 08:29:45;;;;;;;7.47;5.80;;;3.80;99.90;;;;;;5073825;28;20044;-82
2023/01/23 08:32:11;;;;;;;9.43;5.38;;;3.90;99.90;;;;;;5074159;28;20265;-82
2023/01/23 08:34:36;;;;;;;7.38;5.63;;;3.90;99.90;;;;;;5055980;28;20047;-80
2023/01/23 08:37:02;;;;;;;10.20;5.63;;;4.00;99.90;;;;;;5074445;28;20052;-79
2023/01/23 08:39:28;;;;;;;9.75;6.00;;;4.00;99.90;;;;;;5074242;28;20084;-79
2023/01/23 08:41:53;;;;;;;6.70;5.35;;;4.00;99.90;;;;;;5056048;28;20052;-69
2023/01/23 08:44:19;;;;;;;8.60;6.18;;;4.10;99.90;;;;;;5055692;28;20052;-69
2023/01/23 08:46:45;;;;;;;7.93;6.72;;;4.10;99.90;;;;;;5073524;28;20040;-79
2023/01/23 08:49:11;;;;;;;10.82;6.68;;;4.00;99.90;;;;;;5073383;28;20036;-76
2023/01/23 08:51:37;;;;;;;6.97;4.90;;;4.00;99.90;;;;;;5056318;28;20051;-79
2023/01/23 08:54:02;;;;;;;9.80;6.20;;;4.00;99.90;;;;;;5073550;28;20092;-78
2023/01/23 08:56:28;;;;;;;7.45;5.72;;;4.10;99.90;;;;;;5055633;28;20131;-80
2023/01/23 08:58:54;;;;;;;11.80;5.55;;;4.10;99.90;;;;;;5073008;28;20044;-80
2023/01/23 09:01:22;;;;;;;7.72;5.00;;;4.20;99.90;;;;;;5073148;28;20123;-81
2023/01/23 09:03:48;;;;;;;7.57;4.85;;;4.30;99.90;;;;;;5072740;28;20036;-81
2023/01/23 09:06:16;;;;;;;6.65;5.15;;;4.30;99.90;;;;;;5073250;28;20146;-80
2023/01/23 09:08:42;;;;;;;5.72;5.13;;;4.30;99.90;;;;;;5073297;28;20053;-80
2023/01/23 09:11:09;;;;;;;7.15;4.70;;;4.30;99.90;;;;;;5073454;28;20036;-80
2023/01/23 09:13:35;;;;;;;7.05;4.82;;;4.20;99.90;;;;;;5073471;28;20526;-81
2023/01/23 09:16:02;;;;;;;6.95;5.35;;;4.20;99.90;;;;;;5055800;28;20051;-81
2023/01/23 09:18:29;;;;;;;7.32;4.80;;;4.00;99.90;;;;;;5073213;28;20040;-82
2023/01/23 09:20:55;;;;;;;6.13;4.93;;;4.20;99.90;;;;;;5072849;28;20473;-81
2023/01/23 09:23:21;;;;;;;5.50;5.00;;;4.20;99.90;;;;;;5072783;28;20043;-80
2023/01/23 09:25:47;;;;;;;8.55;4.70;;;4.20;99.90;;;;;;5073898;28;20044;-80
2023/01/23 09:28:13;;;;;;;8.32;4.80;;;4.20;99.90;;;;;;5073010;28;20051;-79
2023/01/23 09:30:39;;;;;;;5.45;4.68;;;4.20;99.90;;;;;;5072975;28;20043;-79
2023/01/23 09:33:06;;;;;;;6.05;4.22;;;4.20;99.90;;;;;;5073086;28;20036;-79
2023/01/23 09:35:31;;;;;;;5.85;4.90;;;4.30;99.90;;;;;;5072837;28;20485;-82
2023/01/23 09:38:00;;;;;;;5.65;4.60;;;4.30;99.90;;;;;;5073251;28;20048;-79
2023/01/23 09:40:37;;;;;;;6.03;4.90;;;4.30;99.90;;;;;;5072905;28;20040;-82
2023/01/23 09:43:19;;;;;;;7.53;4.35;;;4.30;99.90;;;;;;5072655;28;20043;-80
2023/01/23 09:45:57;;;;;;;8.02;5.25;;;4.00;99.90;;;;;;5073457;28;20040;-77
2023/01/23 09:48:32;;;;;;;6.68;5.18;;;4.30;99.90;;;;;;5072821;28;20043;-83
2023/01/23 09:51:06;;;;;;;4.90;4.38;;;4.30;99.90;;;;;;5073733;28;20036;-77
2023/01/23 09:53:38;;;;;;;6.22;5.18;;;4.40;99.90;;;;;;5055159;28;20052;-79
2023/01/23 09:56:19;;;;;;;7.30;4.60;;;4.40;99.90;;;;;;5072848;28;20088;-76
2023/01/23 09:59:28;;;;;;;6.97;4.68;;;4.40;99.90;;;;;;5072858;28;20057;-79
2023/01/23 10:01:55;;;;;;;8.40;5.57;;;4.40;99.90;;;;;;5072016;28;20473;-76
2023/01/23 10:04:22;;;;;;;7.00;4.55;;;4.40;99.90;;;;;;5073226;28;20079;-77
2023/01/23 10:06:53;;;;;;;5.90;4.30;;;4.40;99.90;;;;;;5073223;28;20106;-76
2023/01/23 10:10:00;;;;;;;5.10;4.55;;;4.50;99.90;;;;;;5072892;28;20040;-76
2023/01/23 10:12:46;;;;;;;6.38;4.90;;;4.50;99.90;;;;;;5045391;28;20040;-76
2023/01/23 10:15:30;;;;;;;6.68;4.53;;;4.50;99.90;;;;;;5059040;28;20051;-74
2023/01/23 10:17:58;;;;;;;6.57;5.90;;;4.40;99.90;;;;;;5058320;28;20060;-74
2023/01/23 10:20:48;;;;;;;7.07;5.03;;;4.40;99.90;;;;;;5076091;28;20066;-76
2023/01/23 10:23:36;;;;;;;5.30;4.80;;;4.40;99.90;;;;;;5076614;28;20048;-76
2023/01/23 10:26:03;;;;;;;8.38;6.22;;;4.50;99.90;;;;;;5076388;28;20079;-77
2023/01/23 10:28:38;;;;;;;6.22;5.63;;;4.50;99.90;;;;;;5076404;28;20041;-79
2023/01/23 10:31:26;;;;;;;9.73;6.07;;;4.50;99.90;;;;;;5076791;28;20106;-79
2023/01/23 10:34:07;;;;;;;6.85;5.05;;;4.40;99.90;;;;;;5076990;28;20082;-75
2023/01/23 10:36:45;;;;;;;9.13;5.60;;;4.30;99.90;;;;;;5058623;28;20124;-76
2023/01/23 10:39:21;;;;;;;7.47;5.68;;;4.30;99.90;;;;;;5076202;28;20037;-78
2023/01/23 10:41:46;;;;;;;7.88;5.68;;;4.60;99.90;;;;;;5076358;28;20044;-79
2023/01/23 10:44:18;;;;;;;7.55;6.18;;;4.20;99.90;;;;;;5057907;28;20040;-77
2023/01/23 10:46:55;;;;;;;8.20;6.15;;;3.30;99.90;;;;;;5075874;28;20515;-76
2023/01/23 10:49:36;;;;;;;9.30;5.85;;;4.40;99.90;;;;;;5059082;28;20056;-77
2023/01/23 10:52:03;;;;;;;9.57;5.85;;;4.50;99.90;;;;;;5076254;28;20477;-78
2023/01/23 10:54:29;;;;;;;6.68;5.05;;;4.60;99.90;;;;;;5057820;28;20048;-77
2023/01/23 10:57:17;;;;;;;13.98;6.75;;;4.70;99.90;;;;;;5079305;28;20111;-78
2023/01/23 11:00:27;;;;;;;9.60;6.07;;;4.70;99.90;;;;;;5088926;28;20419;-77
2023/01/23 11:02:53;;;;;;;9.05;6.78;;;4.70;99.90;;;;;;5054993;28;20098;-77
2023/01/23 11:05:44;;;;;;;10.15;5.65;;;4.60;99.90;;;;;;5075563;28;20043;-74
2023/01/23 11:08:30;;;;;;;8.45;6.43;;;4.60;99.90;;;;;;5058332;28;20098;-75
2023/01/23 11:11:14;;;;;;;12.02;6.60;;;4.70;99.90;;;;;;5057921;28;20098;-73
2023/01/23 11:13:44;;;;;;;11.77;6.38;;;4.80;99.90;;;;;;5075252;28;20454;-75
2023/01/23 11:16:21;;;;;;;9.20;6.70;;;4.80;99.90;;;;;;5076235;28;20412;-75
2023/01/23 11:19:10;;;;;;;9.10;7.18;;;4.80;99.90;;;;;;5075082;28;20060;-74
2023/01/23 11:22:00;;;;;;;9.82;6.13;;;4.80;99.90;;;;;;5055798;28;20150;-75
2023/01/23 11:24:34;;;;;;;7.10;6.10;;;4.80;99.90;;;;;;5075207;28;20083;-74
2023/01/23 11:27:14;;;;;;;10.80;6.38;;;4.70;99.90;;;;;;5074709;28;20044;-75
2023/01/23 11:29:55;;;;;;;8.65;6.05;;;4.70;99.90;;;;;;5074967;28;20063;-74
2023/01/23 11:32:22;;;;;;;9.65;5.78;;;4.70;99.90;;;;;;5074754;28;20469;-74
2023/01/23 11:35:04;;;;;;;10.48;6.80;;;4.60;99.90;;;;;;5075182;28;20119;-74
2023/01/23 11:37:35;;;;;;;9.80;6.68;;;4.70;99.90;;;;;;5075098;28;20052;-74
2023/01/23 11:40:12;;;;;;;9.80;6.72;;;4.80;99.90;;;;;;5075492;28;20044;-73
2023/01/23 11:42:41;;;;;;;11.25;7.63;;;4.70;99.90;;;;;;5075514;28;20040;-74
2023/01/23 11:45:23;;;;;;;10.68;6.85;;;4.80;99.90;;;;;;5074839;28;20129;-74
2023/01/23 11:48:12;;;;;;;10.37;7.63;;;4.70;99.90;;;;;;5074881;28;20060;-74
2023/01/23 11:50:44;;;;;;;13.38;7.95;;;4.70;99.90;;;;;;5074761;28;20408;-74
2023/01/23 11:53:27;;;;;;;9.60;7.10;;;4.70;99.90;;;;;;5074858;28;20048;-74
2023/01/23 11:56:20;;;;;;;12.32;8.07;;;4.80;99.90;;;;;;5074695;28;20237;-74
2023/01/23 11:59:08;;;;;;;14.65;7.97;;;4.80;99.90;;;;;;5074513;28;20049;-74
2023/01/23 12:01:58;;;;;;;8.60;6.35;;;4.70;99.90;;;;;;5075368;28;20101;-74
2023/01/23 12:04:39;;;;;;;8.05;7.05;;;4.80;99.90;;;;;;5074238;28;20507;-74
2023/01/23 12:07:21;;;;;;;9.68;7.82;;;4.70;99.90;;;;;;5075017;28;20040;-74
2023/01/23 12:09:52;;;;;;;13.98;8.63;;;4.70;99.90;;;;;;5074267;28;20040;-74
2023/01/23 12:12:42;;;;;;;10.35;7.95;;;4.70;99.90;;;;;;5074268;28;20075;-75
2023/01/23 12:15:17;;;;;;;9.35;7.47;;;4.70;99.90;;;;;;5074392;28;20044;-74
2023/01/23 12:18:10;;;;;;;8.30;7.25;;;4.90;99.90;;;;;;5056487;28;20067;-73
2023/01/23 12:20:55;;;;;;;13.85;8.13;;;4.70;99.90;;;;;;5074045;28;20047;-74
2023/01/23 12:23:38;;;;;;;8.73;7.78;;;4.70;99.90;;;;;;5074137;28;20040;-74
2023/01/23 12:26:13;;;;;;;9.70;8.32;;;4.60;99.90;;;;;;5057016;28;20052;-81
2023/01/23 12:28:57;;;;;;;13.05;8.38;;;4.70;99.90;;;;;;5074032;28;20052;-86
2023/01/23 12:31:25;;;;;;;12.05;7.93;;;4.70;99.90;;;;;;5074331;28;20086;-79
2023/01/23 12:33:54;;;;;;;9.18;7.68;;;4.60;99.90;;;;;;5056039;28;20456;-81
2023/01/23 12:36:53;;;;;;;10.68;7.50;;;4.70;99.90;;;;;;5074083;28;20040;-77
2023/01/23 12:39:34;;;;;;;11.60;8.48;;;4.60;99.90;;;;;;5073934;28;20048;-75
2023/01/23 12:42:13;;;;;;;12.43;8.98;;;4.70;99.90;;;;;;5074342;28;20093;-75
2023/01/23 12:44:57;;;;;;;13.05;8.57;;;4.60;99.90;;;;;;5073607;28;20055;-76
2023/01/23 12:47:46;;;;;;;11.18;8.15;;;4.60;99.90;;;;;;5073606;28;20361;-76
2023/01/23 12:50:46;;;;;;;16.02;9.88;;;4.70;99.90;;;;;;5073065;28;20407;-75
2023/01/23 12:53:15;;;;;;;12.93;8.38;;;4.60;99.90;;;;;;5069812;28;20051;-76
2023/01/23 12:55:59;;;;;;;11.55;8.60;;;4.60;99.90;;;;;;5073662;28;20052;-79
2023/01/23 12:58:28;;;;;;;14.55;8.77;;;4.60;99.90;;;;;;5056483;28;20048;-77
2023/01/23 13:01:04;;;;;;;10.98;9.05;;;4.30;99.90;;;;;;5073655;28;20381;-77
2023/01/23 13:03:52;;;;;;;11.43;7.88;;;4.60;99.90;;;;;;5073813;28;20139;-79
2023/01/23 13:06:59;;;;;;;8.68;6.55;;;4.70;99.90;;;;;;5073259;28;20040;-76
2023/01/23 13:10:12;;;;;;;10.38;6.70;;;4.70;99.90;;;;;;5045553;28;20052;-81
2023/01/23 13:12:38;;;;;;;12.85;7.00;;;4.70;99.90;;;;;;5073989;28;20568;-76
2023/01/23 13:15:16;;;;;;;11.70;6.32;;;4.80;99.90;;;;;;5074027;28;20040;-76
2023/01/23 13:17:56;;;;;;;11.20;6.45;;;4.70;99.90;;;;;;5074106;28;20469;-78